Methow, Washington
Current Conditions -  °F | °C
As of 3:53 PM on Sunday 21 Dec 2014 (Local Time) from KOMK Reporting Station
Clear Clear  
Wind Chill: 45°   Ceiling: Unl
Heat Index: 45°   Visibility: 10mi
Dew Point: 34°   Wind: 3mph
Humidity: 65%   Direction: 170°S
Pressure: 29.86"   Gusts: NA
Location:  48.13°N, 120.01°W
Report Text: KOMK 212353Z AUTO 17003KT 10SM CLR 07/01 A2986 RMK AO2 SLP121 T00720011 10106 20044 51021
Loading
Personal Weather Stations






























Interactive Weather Map New forecast layout! Learn more

10-Day Weather Forecast

Advertisements
Track Severe Weather on mobile